Franklin, NJ (07416)

10:59 PM EDT on August 30, 2015 (GMT -0400)
KNJFRANK2 | | Change Station
CLOSE
Current Station
Personal Weather Station
Location: Franklin, NJ
Elevation: 571 ft
Nearby Weather Stations

Elev 571 ft 41.12 °N, 74.59 °W | Updated 14 minutes ago

Overcast
Overcast
69.4 °F
Feels Like 69.4 °F
N
0.0
Wind Variable Wind from North
Gusts 1.0 mph

Today
High -- | Low -- °F
--% Chance of Precip.
Yesterday
High -- | Low -- °F
Precip. -- in
6:22 AM 7:34 PM
Full, 97% visible
Pressure 30.04 in
Visibility 0.2 miles
Clouds
Dew Point 67 °F
Humidity 93%
Rainfall 0.00 in
Snow Depth Not available.
UV Not available.
Pollen 10.30 out of 12
Air Quality Not available.
Flu Activity Not available.
METAR KFWN 310253Z AUTO 00000KT 1/4SM FG VV002 21/20 A3005 RMK AO2 RAB41E50 SLP173 P0000 60000 T02110200 51006
Pressure 30.04 in
Visibility 0.2 miles
Clouds
Dew Point 67 °F
Humidity 93%
Rainfall 0.00 in
Snow Depth Not available.
UV Not available.
Pollen 10.30 out of 12
Air Quality Not available.
Flu Activity Not available.
METAR KFWN 310253Z AUTO 00000KT 1/4SM FG VV002 21/20 A3005 RMK AO2 RAB41E50 SLP173 P0000 60000 T02110200 51006
Nowcast | as of 9:20 PM EDT on August 30, 2015

Between now and 1100 PM, scattered showers may pass across parts of the Pocono region and far northern New Jersey. Rainfall amounts should be less than a quarter inch.

×

10-Day Weather Forecast

×

Almanac

Astronomy

Aug. 30, 2015 Rise Set
Actual Time
Civil Twilight
Nautical Twilight
Astronomical Twilight
Moon
Length of Visible Light
Length of Day
Tomorrow will be .
, % of the Moon is Illuminated

Today's Extremes

State Highs State Lows

Community

WunderPhotos

Upload Photos

1,851,165 photos uploaded!

WunderBlogs® & News

Nearby

Air Quality

  Air Quality AQ Index Pollutant
Not available.

Snow Depth

Station Depth Elevation

Earthquake Activity

City Distance Mag. Time & Date
Minimum magnitude displayed is 2.5.

Coastal Water Temperatures

Place Temperature

Stations

Nearby Weather Stations

Station Location Temp. Windchill Dew Point Humidity Wind Precip. Elev Updated Type